sensor_id;sensor_type;location;lat;lon;timestamp;pressure;altitude;pressure_sealevel;temperature;humidity
48015;BME280;33780;51.034;7.120;2022-12-07T15:45:54;100637.13;;;4.23;100.00
48015;BME280;33780;51.034;7.120;2022-12-07T15:48:19;100634.78;;;4.33;100.00
48015;BME280;33780;51.034;7.120;2022-12-07T15:50:44;100634.75;;;4.47;100.00
48015;BME280;33780;51.034;7.120;2022-12-07T15:53:10;100632.94;;;4.62;100.00
48015;BME280;33780;51.034;7.120;2022-12-07T15:55:38;100635.41;;;4.79;100.00
48015;BME280;33780;51.034;7.120;2022-12-07T15:58:03;100641.44;;;4.95;100.00
48015;BME280;33780;51.034;7.120;2022-12-07T16:00:29;100633.34;;;5.11;100.00
48015;BME280;33780;51.034;7.120;2022-12-07T16:02:54;100631.50;;;5.26;100.00
48015;BME280;33780;51.034;7.120;2022-12-07T16:05:19;100630.69;;;5.38;100.00
48015;BME280;33780;51.034;7.120;2022-12-07T16:07:44;100630.72;;;5.51;100.00
48015;BME280;33780;51.034;7.120;2022-12-07T16:10:11;100634.38;;;5.62;100.00
48015;BME280;33780;51.034;7.120;2022-12-07T16:12:36;100630.03;;;5.74;100.00
48015;BME280;33780;51.034;7.120;2022-12-07T16:15:02;100634.75;;;5.83;100.00
48015;BME280;33780;51.034;7.120;2022-12-07T16:17:27;100628.84;;;5.92;100.00
48015;BME280;33780;51.034;7.120;2022-12-07T16:19:52;100631.09;;;5.98;100.00
48015;BME280;33780;51.034;7.120;2022-12-07T16:22:18;100626.19;;;6.05;100.00
48015;BME280;33780;51.034;7.120;2022-12-07T16:24:43;100631.97;;;6.12;100.00
48015;BME280;33780;51.034;7.120;2022-12-07T16:27:09;100626.31;;;6.16;100.00
48015;BME280;33780;51.034;7.120;2022-12-07T16:29:34;100625.16;;;6.20;99.21
48015;BME280;33780;51.034;7.120;2022-12-07T16:31:59;100631.94;;;6.24;99.39
48015;BME280;33780;51.034;7.120;2022-12-07T16:34:25;100627.38;;;6.26;99.38
48015;BME280;33780;51.034;7.120;2022-12-07T16:36:50;100627.06;;;6.31;99.73
48015;BME280;33780;51.034;7.120;2022-12-07T16:39:15;100624.31;;;6.32;99.24
48015;BME280;33780;51.034;7.120;2022-12-07T16:41:41;100617.06;;;6.34;99.16
48015;BME280;33780;51.034;7.120;2022-12-07T16:44:10;100619.63;;;6.36;99.24
48015;BME280;33780;51.034;7.120;2022-12-07T16:46:36;100616.84;;;6.38;98.11
48015;BME280;33780;51.034;7.120;2022-12-07T16:49:01;100612.28;;;6.40;98.77
48015;BME280;33780;51.034;7.120;2022-12-07T16:51:27;100615.66;;;6.42;98.12
48015;BME280;33780;51.034;7.120;2022-12-07T16:53:53;100606.75;;;6.43;97.36
48015;BME280;33780;51.034;7.120;2022-12-07T16:56:18;100610.13;;;6.45;97.61
48015;BME280;33780;51.034;7.120;2022-12-07T16:58:44;100609.16;;;6.46;97.33
48015;BME280;33780;51.034;7.120;2022-12-07T17:01:12;100606.50;;;6.46;96.49
48015;BME280;33780;51.034;7.120;2022-12-07T17:03:39;100609.16;;;6.46;96.33
48015;BME280;33780;51.034;7.120;2022-12-07T17:06:14;100606.44;;;6.47;97.05
48015;BME280;33780;51.034;7.120;2022-12-07T17:08:40;100601.00;;;6.49;96.43
48015;BME280;33780;51.034;7.120;2022-12-07T17:11:13;100602.72;;;6.50;96.06
48015;BME280;33780;51.034;7.120;2022-12-07T17:13:40;100596.44;;;6.51;95.47
48015;BME280;33780;51.034;7.120;2022-12-07T17:16:24;100593.78;;;6.51;95.25
48015;BME280;33780;51.034;7.120;2022-12-07T17:18:50;100594.63;;;6.51;95.13
48015;BME280;33780;51.034;7.120;2022-12-07T17:21:15;100590.16;;;6.52;95.30
48015;BME280;33780;51.034;7.120;2022-12-07T17:23:41;100595.47;;;6.52;94.74
48015;BME280;33780;51.034;7.120;2022-12-07T17:26:12;100598.88;;;6.54;95.17
48015;BME280;33780;51.034;7.120;2022-12-07T17:28:37;100596.22;;;6.54;94.84
48015;BME280;33780;51.034;7.120;2022-12-07T17:31:08;100588.13;;;6.55;94.90
48015;BME280;33780;51.034;7.120;2022-12-07T17:33:34;100593.44;;;6.55;94.44
48015;BME280;33780;51.034;7.120;2022-12-07T17:36:00;100590.66;;;6.57;94.70
48015;BME280;33780;51.034;7.120;2022-12-07T17:38:28;100587.91;;;6.58;94.24
48015;BME280;33780;51.034;7.120;2022-12-07T17:40:53;100591.50;;;6.57;93.76
48015;BME280;33780;51.034;7.120;2022-12-07T17:43:19;100580.88;;;6.57;93.45
48015;BME280;33780;51.034;7.120;2022-12-07T17:45:44;100581.72;;;6.58;93.36
48015;BME280;33780;51.034;7.120;2022-12-07T17:48:09;100585.25;;;6.58;93.58
48015;BME280;33780;51.034;7.120;2022-12-07T17:50:34;100581.63;;;6.59;93.42
48015;BME280;33780;51.034;7.120;2022-12-07T17:53:18;100571.94;;;6.58;93.17
48015;BME280;33780;51.034;7.120;2022-12-07T17:55:44;100572.91;;;6.57;92.52
48015;BME280;33780;51.034;7.120;2022-12-07T17:58:09;100568.31;;;6.59;93.42
48015;BME280;33780;51.034;7.120;2022-12-07T18:00:34;100570.13;;;6.59;92.30
48015;BME280;33780;51.034;7.120;2022-12-07T18:03:06;100568.22;;;6.61;93.25
48015;BME280;33780;51.034;7.120;2022-12-07T18:05:41;100567.25;;;6.62;92.64
48015;BME280;33780;51.034;7.120;2022-12-07T18:08:08;100564.59;;;6.62;92.33
48015;BME280;33780;51.034;7.120;2022-12-07T18:10:33;100557.47;;;6.62;92.42
48015;BME280;33780;51.034;7.120;2022-12-07T18:12:58;100555.66;;;6.63;92.47
48015;BME280;33780;51.034;7.120;2022-12-07T18:15:42;100553.84;;;6.63;92.28
48015;BME280;33780;51.034;7.120;2022-12-07T18:18:08;100560.00;;;6.64;91.91
48015;BME280;33780;51.034;7.120;2022-12-07T18:20:33;100559.09;;;6.65;91.82
48015;BME280;33780;51.034;7.120;2022-12-07T18:22:59;100552.91;;;6.64;91.81
48015;BME280;33780;51.034;7.120;2022-12-07T18:25:24;100549.38;;;6.64;91.23
48015;BME280;33780;51.034;7.120;2022-12-07T18:27:49;100550.16;;;6.66;91.16
48015;BME280;33780;51.034;7.120;2022-12-07T18:30:14;100547.47;;;6.66;91.33
48015;BME280;33780;51.034;7.120;2022-12-07T18:32:40;100542.06;;;6.68;91.57
48015;BME280;33780;51.034;7.120;2022-12-07T18:35:05;100543.88;;;6.67;91.14
